createdAt,value
2022-09-28T00:04:56.820Z,15.10
2022-09-28T00:20:01.124Z,15.50
2022-09-28T00:35:05.887Z,14.90
2022-09-28T00:50:19.084Z,14.90
2022-09-28T01:05:25.464Z,15.20
2022-09-28T01:20:48.636Z,15.30
2022-09-28T01:35:59.259Z,15.20
2022-09-28T01:51:06.477Z,15.10
2022-09-28T02:06:16.703Z,15.10
2022-09-28T02:21:26.853Z,15.20
2022-09-28T02:36:31.514Z,15.10
2022-09-28T02:51:43.134Z,15.20
2022-09-28T03:06:57.031Z,15.30
2022-09-28T03:22:01.945Z,15.10
2022-09-28T03:37:06.604Z,15.30
2022-09-28T03:52:11.621Z,15.10
2022-09-28T04:07:16.079Z,15.20
2022-09-28T04:22:21.589Z,15.30
2022-09-28T04:37:26.045Z,14.90
2022-09-28T04:52:30.453Z,14.80
2022-09-28T05:07:35.520Z,15.10
2022-09-28T05:22:41.844Z,14.70
2022-09-28T05:37:47.307Z,15.10
2022-09-28T05:53:00.377Z,15.30
2022-09-28T06:08:06.649Z,15.60
2022-09-28T06:23:11.864Z,15.10
2022-09-28T06:38:16.369Z,15.50
2022-09-28T06:53:21.903Z,15.60
2022-09-28T07:08:34.552Z,15.60
2022-09-28T07:23:57.525Z,15.10
2022-09-28T07:39:02.076Z,14.90
2022-09-28T07:54:06.999Z,15.30
2022-09-28T08:09:18.920Z,15.70
2022-09-28T08:24:41.964Z,15.80
2022-09-28T08:39:46.559Z,15.80
2022-09-28T08:55:03.548Z,15.10
2022-09-28T09:10:39.475Z,15.40
2022-09-28T09:25:50.646Z,15.70
2022-09-28T09:41:09.229Z,15.90
2022-09-28T09:56:38.492Z,15.70
2022-09-28T10:11:53.071Z,16.00
2022-09-28T10:27:04.452Z,16.10
2022-09-28T10:42:12.170Z,16.00
2022-09-28T10:57:29.829Z,17.30
2022-09-28T11:12:45.395Z,17.30
2022-09-28T11:28:04.541Z,16.90
2022-09-28T11:43:20.734Z,17.20
2022-09-28T11:58:30.614Z,17.00
2022-09-28T12:13:40.408Z,16.80
2022-09-28T12:28:49.515Z,16.60
2022-09-28T12:44:12.311Z,16.70
2022-09-28T12:59:25.501Z,17.50
2022-09-28T13:14:53.096Z,17.60
2022-09-28T13:30:01.347Z,17.60
2022-09-28T13:45:24.786Z,18.30
2022-09-28T14:00:34.298Z,18.40
2022-09-28T14:15:46.577Z,18.00
2022-09-28T14:30:55.394Z,16.60
2022-09-28T14:46:44.936Z,16.60
2022-09-28T15:01:54.977Z,16.90
2022-09-28T15:17:03.351Z,17.50
2022-09-28T15:32:23.756Z,17.10
2022-09-28T15:47:31.830Z,18.20
2022-09-28T16:02:36.725Z,19.70
2022-09-28T16:17:41.611Z,19.20
2022-09-28T16:32:53.686Z,18.50
2022-09-28T16:47:58.728Z,17.90
2022-09-28T17:03:05.264Z,17.20
2022-09-28T17:18:13.686Z,16.90
2022-09-28T17:33:18.238Z,16.80
2022-09-28T17:48:23.424Z,16.10
2022-09-28T18:03:28.057Z,15.60
2022-09-28T18:18:33.258Z,16.50
2022-09-28T18:33:37.902Z,16.20
2022-09-28T18:48:42.321Z,16.50
2022-09-28T19:03:47.229Z,16.70
2022-09-28T19:18:52.346Z,16.50
2022-09-28T19:33:56.820Z,16.60
2022-09-28T19:49:02.353Z,16.30
2022-09-28T20:04:07.186Z,16.00
2022-09-28T20:19:11.681Z,15.70
2022-09-28T20:34:16.171Z,15.90
2022-09-28T20:49:20.672Z,15.80
2022-09-28T21:04:25.001Z,15.80
2022-09-28T21:19:30.014Z,15.90
2022-09-28T21:34:35.776Z,15.40
2022-09-28T21:49:40.189Z,15.90
2022-09-28T22:04:44.631Z,15.70
2022-09-28T22:19:48.985Z,15.50
2022-09-28T22:34:53.850Z,15.30
2022-09-28T22:49:58.237Z,15.30
2022-09-28T23:05:02.570Z,15.00
2022-09-28T23:20:07.211Z,15.10
2022-09-28T23:35:12.356Z,15.20
2022-09-28T23:50:16.824Z,15.50
